Time;durP1;ratioP1;P1;durP2;ratioP2;P2;SDS_P1;SDS_P2;PMS_P1;PMS_P2;Temp;Humidity;BMP_temperature;BMP_pressure;BME280_temperature;BME280_humidity;BME280_pressure;Samples;Min_cycle;Max_cycle;Signal;HPM_P1;HPM_P2
2022/07/03 00:01:32;;;;;;;2.77;2.57;;;17.00;99.90;;;;;;7372637;19;20460;-76
2022/07/03 00:03:57;;;;;;;2.50;2.30;;;16.90;99.90;;;;;;7373787;19;21253;-74
2022/07/03 00:06:23;;;;;;;2.70;2.50;;;16.80;99.90;;;;;;7370632;19;20336;-73
2022/07/03 00:08:49;;;;;;;4.57;2.80;;;16.80;99.90;;;;;;7377103;19;20412;-71
2022/07/03 00:11:15;;;;;;;2.72;2.47;;;16.80;99.90;;;;;;7375878;19;20336;-74
2022/07/03 00:13:40;;;;;;;3.30;2.45;;;16.70;99.90;;;;;;7375846;19;20317;-73
2022/07/03 00:16:06;;;;;;;2.57;2.37;;;16.70;99.90;;;;;;7371676;19;20335;-75
2022/07/03 00:18:31;;;;;;;2.63;2.43;;;16.70;99.90;;;;;;7376203;19;20343;-74
2022/07/03 00:21:00;;;;;;;2.80;2.60;;;16.70;99.90;;;;;;7376106;19;21215;-72
2022/07/03 00:23:26;;;;;;;3.10;2.80;;;16.60;99.90;;;;;;7372328;19;21145;-74
2022/07/03 00:25:51;;;;;;;3.00;2.70;;;16.60;99.90;;;;;;7369981;19;20314;-78
2022/07/03 00:28:19;;;;;;;2.53;2.33;;;16.50;99.90;;;;;;7374117;19;20349;-75
2022/07/03 00:30:46;;;;;;;2.70;2.50;;;16.50;99.90;;;;;;7373248;19;20428;-76
2022/07/03 00:33:11;;;;;;;2.60;2.40;;;16.40;99.90;;;;;;7373084;19;20365;-75
2022/07/03 00:35:37;;;;;;;2.77;2.57;;;16.40;99.90;;;;;;7367767;19;20348;-76
2022/07/03 00:38:03;;;;;;;3.25;2.90;;;16.40;99.90;;;;;;7373343;19;21176;-76
2022/07/03 00:40:29;;;;;;;2.90;2.70;;;16.40;99.90;;;;;;7379930;19;20317;-77
2022/07/03 00:42:55;;;;;;;2.92;2.70;;;16.30;99.90;;;;;;7377060;19;20690;-72
2022/07/03 00:45:20;;;;;;;2.70;2.50;;;16.20;99.90;;;;;;7373643;19;20333;-74
2022/07/03 00:47:46;;;;;;;3.00;2.78;;;16.20;99.90;;;;;;7378958;19;20339;-73
2022/07/03 00:50:11;;;;;;;2.70;2.50;;;16.20;99.90;;;;;;7378291;19;20349;-75
2022/07/03 00:52:38;;;;;;;2.90;2.70;;;16.10;99.90;;;;;;7374036;19;20560;-75
2022/07/03 00:55:08;;;;;;;3.20;2.90;;;16.00;99.90;;;;;;7373524;19;20336;-74
2022/07/03 00:57:34;;;;;;;2.75;2.53;;;15.90;99.90;;;;;;7377442;19;20337;-73
2022/07/03 01:00:00;;;;;;;2.67;2.47;;;15.90;99.90;;;;;;7376916;19;20340;-72
2022/07/03 01:02:38;;;;;;;3.40;2.88;;;15.90;99.90;;;;;;7377409;19;20364;-76
2022/07/03 01:05:17;;;;;;;2.72;2.53;;;15.90;99.90;;;;;;7270680;19;2004544;-72
2022/07/03 01:08:07;;;;;;;3.00;2.80;;;15.90;99.90;;;;;;7378650;19;20432;-74
2022/07/03 01:10:49;;;;;;;3.13;2.90;;;15.90;99.90;;;;;;7277372;19;2004669;-71
2022/07/03 01:13:22;;;;;;;3.15;2.90;;;15.80;99.90;;;;;;7372611;19;20442;-74
2022/07/03 01:16:00;;;;;;;3.37;3.00;;;15.70;99.90;;;;;;7375055;19;20348;-76
2022/07/03 01:18:43;;;;;;;3.40;3.10;;;15.70;99.90;;;;;;7378092;19;21825;-73
2022/07/03 01:21:15;;;;;;;3.00;2.70;;;15.60;99.90;;;;;;7272436;19;2004506;-74
2022/07/03 01:23:56;;;;;;;3.17;2.93;;;15.50;99.90;;;;;;7372431;19;20329;-72
2022/07/03 01:26:22;;;;;;;2.70;2.50;;;15.50;99.90;;;;;;7374518;19;20308;-73
2022/07/03 01:28:49;;;;;;;2.75;2.55;;;15.50;99.90;;;;;;7378236;19;20337;-75
2022/07/03 01:31:20;;;;;;;3.30;3.00;;;15.40;99.90;;;;;;7374852;19;20365;-74
2022/07/03 01:33:45;;;;;;;4.70;2.90;;;15.40;99.90;;;;;;7372443;19;20871;-76
2022/07/03 01:36:11;;;;;;;3.57;3.27;;;15.40;99.90;;;;;;7375208;19;20343;-76
2022/07/03 01:38:39;;;;;;;3.00;2.80;;;15.40;99.90;;;;;;7376727;19;20369;-73
2022/07/03 01:41:09;;;;;;;4.72;3.08;;;15.40;99.90;;;;;;7376360;19;20321;-75
2022/07/03 01:43:43;;;;;;;3.23;2.93;;;15.30;99.90;;;;;;7371836;19;20325;-74
2022/07/03 01:46:09;;;;;;;3.55;3.25;;;15.20;99.90;;;;;;7375158;19;20399;-75
2022/07/03 01:48:34;;;;;;;3.03;2.75;;;15.20;99.90;;;;;;7377045;19;20416;-72
2022/07/03 01:51:00;;;;;;;4.45;2.80;;;15.10;99.90;;;;;;7375766;19;20863;-72
2022/07/03 01:53:28;;;;;;;2.90;2.70;;;15.10;99.90;;;;;;7375468;19;20351;-73
2022/07/03 01:55:58;;;;;;;3.03;2.83;;;15.10;99.90;;;;;;7374309;19;20301;-75
2022/07/03 01:58:23;;;;;;;3.17;2.90;;;15.00;99.90;;;;;;7379366;19;20296;-76
2022/07/03 02:01:22;;;;;;;2.90;2.65;;;15.00;99.90;;;;;;7373920;19;20858;-73
2022/07/03 02:03:54;;;;;;;3.17;2.95;;;15.00;99.90;;;;;;7269540;19;2019174;-75
2022/07/03 02:06:44;;;;;;;3.35;3.08;;;15.00;99.90;;;;;;7373651;19;20328;-75
2022/07/03 02:09:11;;;;;;;2.97;2.78;;;14.90;99.90;;;;;;7273916;19;2020168;-76
2022/07/03 02:11:38;;;;;;;3.13;2.90;;;14.80;99.90;;;;;;7375224;19;21327;-74
2022/07/03 02:14:30;;;;;;;3.53;3.10;;;14.80;99.90;;;;;;7371628;19;20662;-75
2022/07/03 02:17:15;;;;;;;3.30;3.00;;;14.70;99.90;;;;;;7374337;19;20336;-74
2022/07/03 02:20:00;;;;;;;3.40;3.10;;;14.70;99.90;;;;;;7274210;19;2005097;-75
2022/07/03 02:22:31;;;;;;;2.95;2.75;;;14.60;99.90;;;;;;7372206;19;20376;-74
2022/07/03 02:25:24;;;;;;;4.03;3.58;;;14.60;99.90;;;;;;7373785;19;20369;-73
2022/07/03 02:28:04;;;;;;;3.90;2.67;;;14.60;99.90;;;;;;7274594;19;2004007;-78
2022/07/03 02:30:29;;;;;;;3.25;2.95;;;14.60;99.90;;;;;;7375466;19;20352;-77
2022/07/03 02:32:57;;;;;;;3.00;2.80;;;14.60;99.90;;;;;;7371598;19;20383;-75
2022/07/03 02:35:26;;;;;;;3.40;3.10;;;14.40;99.90;;;;;;7370467;19;20345;-75
2022/07/03 02:38:08;;;;;;;3.30;3.00;;;14.40;99.90;;;;;;7376147;19;20332;-79
2022/07/03 02:40:58;;;;;;;3.75;3.42;;;14.50;99.90;;;;;;7271610;19;2012175;-79
2022/07/03 02:43:44;;;;;;;3.25;2.95;;;14.50;99.90;;;;;;7375081;19;20301;-74
2022/07/03 02:49:20;;;;;;;3.00;2.78;;;14.50;99.90;;;;;;7274204;19;2004470;-79
2022/07/03 02:51:48;;;;;;;3.55;2.97;;;14.50;99.90;;;;;;7374077;19;20387;-79
2022/07/03 02:54:14;;;;;;;3.38;3.08;;;14.50;99.90;;;;;;7370208;19;20688;-79
2022/07/03 02:56:55;;;;;;;3.60;3.30;;;14.50;99.90;;;;;;7371016;19;20930;-76
2022/07/03 02:59:51;;;;;;;3.30;3.00;;;14.50;99.90;;;;;;7375115;19;20331;-74
2022/07/03 03:02:25;;;;;;;4.50;3.40;;;14.40;99.90;;;;;;7277379;19;2004482;-73
2022/07/03 03:05:14;;;;;;;3.17;2.88;;;14.40;99.90;;;;;;7376517;19;20400;-78
2022/07/03 03:08:13;;;;;;;3.15;2.85;;;14.40;99.90;;;;;;7274825;19;2004506;-74
2022/07/03 03:10:39;;;;;;;2.80;2.60;;;14.30;99.90;;;;;;7278486;19;2004555;-77
2022/07/03 03:13:06;;;;;;;3.05;2.75;;;14.30;99.90;;;;;;7381137;19;20689;-75
2022/07/03 03:15:33;;;;;;;3.20;3.00;;;14.30;99.90;;;;;;7374822;19;20433;-76
2022/07/03 03:18:03;;;;;;;3.10;2.90;;;14.50;99.90;;;;;;7381142;19;20344;-77
2022/07/03 03:20:31;;;;;;;2.90;2.70;;;14.30;99.90;;;;;;7381064;19;20365;-78
2022/07/03 03:23:11;;;;;;;3.38;3.13;;;14.30;99.90;;;;;;7382038;19;20324;-74
2022/07/03 03:25:37;;;;;;;3.17;2.87;;;14.40;99.90;;;;;;7273528;19;2016767;-73
2022/07/03 03:28:03;;;;;;;3.53;3.22;;;14.40;99.90;;;;;;7378766;19;20316;-72
2022/07/03 03:30:28;;;;;;;3.53;2.97;;;14.40;99.90;;;;;;7380443;19;20348;-73
2022/07/03 03:32:54;;;;;;;4.78;3.33;;;14.40;99.90;;;;;;7380617;19;20336;-75
2022/07/03 03:35:19;;;;;;;3.40;3.10;;;14.40;99.90;;;;;;7375402;19;20693;-73
2022/07/03 03:37:45;;;;;;;3.50;3.20;;;14.50;99.90;;;;;;7381134;19;20337;-76
2022/07/03 03:40:11;;;;;;;3.50;3.20;;;14.40;99.90;;;;;;7379743;19;20301;-73
2022/07/03 03:42:37;;;;;;;3.40;3.10;;;14.50;99.90;;;;;;7377578;19;20814;-80
2022/07/03 03:45:03;;;;;;;3.40;3.10;;;14.60;99.90;;;;;;7376117;19;20333;-73
2022/07/03 03:47:29;;;;;;;3.75;3.45;;;14.60;99.90;;;;;;7381860;19;20333;-78
2022/07/03 03:49:54;;;;;;;3.38;3.08;;;14.60;99.90;;;;;;7362266;19;20428;-72
2022/07/03 03:52:20;;;;;;;3.00;2.70;;;14.70;99.90;;;;;;7377150;19;20870;-75
2022/07/03 03:54:45;;;;;;;3.00;2.80;;;14.70;99.90;;;;;;7374342;19;20347;-72
2022/07/03 03:57:18;;;;;;;3.80;3.38;;;14.80;99.90;;;;;;7377143;19;20324;-75
2022/07/03 03:59:44;;;;;;;3.50;3.10;;;14.90;99.90;;;;;;7381234;19;20380;-72
2022/07/03 04:02:09;;;;;;;4.80;3.17;;;15.00;99.90;;;;;;7376358;19;20380;-74
2022/07/03 04:04:35;;;;;;;3.10;2.80;;;15.10;99.90;;;;;;7376134;19;21404;-78
2022/07/03 04:07:01;;;;;;;4.00;3.47;;;15.30;99.90;;;;;;7376936;19;20317;-79
2022/07/03 04:09:26;;;;;;;3.88;3.03;;;15.20;99.90;;;;;;7380571;19;20344;-77
2022/07/03 04:11:52;;;;;;;3.13;2.83;;;15.30;99.90;;;;;;7378808;19;20877;-76
2022/07/03 04:14:17;;;;;;;3.10;2.90;;;15.40;99.90;;;;;;7379892;19;20348;-76
2022/07/03 04:16:43;;;;;;;3.38;2.97;;;15.50;99.90;;;;;;7374849;19;20467;-77
2022/07/03 04:19:08;;;;;;;3.20;2.90;;;15.60;99.90;;;;;;7381079;19;21321;-80
2022/07/03 04:21:34;;;;;;;3.20;2.90;;;15.70;99.90;;;;;;7379664;19;20349;-77
2022/07/03 04:23:59;;;;;;;3.38;3.10;;;15.80;99.90;;;;;;7380034;19;20352;-76
2022/07/03 04:26:25;;;;;;;2.70;2.50;;;16.00;99.90;;;;;;7373640;19;20411;-73
2022/07/03 04:28:50;;;;;;;3.30;3.10;;;16.10;99.90;;;;;;7379086;19;20344;-73
2022/07/03 04:31:16;;;;;;;3.20;2.97;;;16.20;99.90;;;;;;7378609;19;20340;-73
2022/07/03 04:33:42;;;;;;;2.90;2.70;;;16.30;99.90;;;;;;7378030;19;20337;-73
2022/07/03 04:36:07;;;;;;;3.40;3.10;;;16.40;99.90;;;;;;7374522;19;20309;-78
2022/07/03 04:38:33;;;;;;;3.00;2.80;;;16.50;99.90;;;;;;7378053;19;21270;-74
2022/07/03 04:40:58;;;;;;;3.03;2.83;;;16.60;99.90;;;;;;7378902;19;20315;-73
2022/07/03 04:43:24;;;;;;;3.73;3.00;;;16.70;99.90;;;;;;7374867;19;20309;-73
2022/07/03 04:45:49;;;;;;;4.90;3.00;;;16.90;99.90;;;;;;7377701;19;20867;-73
2022/07/03 04:48:15;;;;;;;3.00;2.80;;;17.00;99.90;;;;;;7378135;19;20372;-74
2022/07/03 04:50:40;;;;;;;2.93;2.60;;;17.10;99.90;;;;;;7379874;19;20429;-75
2022/07/03 04:53:06;;;;;;;3.17;2.87;;;17.20;99.90;;;;;;7375401;19;20812;-79
2022/07/03 04:55:32;;;;;;;3.63;3.33;;;17.40;99.90;;;;;;7377507;19;20324;-74
2022/07/03 04:57:57;;;;;;;3.35;3.05;;;17.50;99.90;;;;;;7379483;19;20321;-77
2022/07/03 05:00:23;;;;;;;3.00;2.70;;;17.60;99.90;;;;;;7377844;19;20354;-75
2022/07/03 05:02:48;;;;;;;3.80;2.60;;;17.70;99.90;;;;;;7375134;19;20360;-77
2022/07/03 05:05:14;;;;;;;3.83;2.80;;;17.90;99.90;;;;;;7376862;19;20464;-74
2022/07/03 05:07:39;;;;;;;3.50;2.50;;;18.00;99.90;;;;;;7378464;19;20323;-78
2022/07/03 05:10:05;;;;;;;3.60;2.60;;;18.20;99.90;;;;;;7379240;19;20933;-73
2022/07/03 05:12:31;;;;;;;2.85;2.58;;;18.30;99.90;;;;;;7375034;19;20964;-76
2022/07/03 05:14:57;;;;;;;2.60;2.38;;;18.50;99.90;;;;;;7376334;19;20447;-74
2022/07/03 05:17:22;;;;;;;2.90;2.60;;;18.60;99.90;;;;;;7378400;19;20339;-76
2022/07/03 05:20:23;;;;;;;3.00;2.80;;;18.70;99.90;;;;;;7377602;19;20344;-73
2022/07/03 05:22:33;;;;;;;2.85;2.65;;;18.80;99.90;;;;;;7270981;19;2004882;-75
2022/07/03 05:24:59;;;;;;;2.90;2.70;;;19.00;99.90;;;;;;7378110;19;20949;-75
2022/07/03 05:27:25;;;;;;;2.93;2.60;;;19.10;99.90;;;;;;7374419;19;20391;-75
2022/07/03 05:29:50;;;;;;;2.95;2.75;;;19.20;99.90;;;;;;7378673;19;20335;-76
2022/07/03 05:32:16;;;;;;;2.77;2.57;;;19.40;99.90;;;;;;7374206;19;20358;-73
2022/07/03 05:34:41;;;;;;;3.27;2.73;;;19.50;99.90;;;;;;7374711;19;21024;-76
2022/07/03 05:37:07;;;;;;;3.03;2.70;;;19.70;99.90;;;;;;7375486;19;20324;-76
2022/07/03 05:39:33;;;;;;;3.58;2.65;;;19.80;99.90;;;;;;7376010;19;20423;-77
2022/07/03 05:41:58;;;;;;;2.70;2.50;;;20.00;99.90;;;;;;7372488;19;20346;-73
2022/07/03 05:44:24;;;;;;;3.33;2.60;;;20.10;99.90;;;;;;7374255;19;20304;-77
2022/07/03 05:46:49;;;;;;;2.72;2.53;;;20.20;99.90;;;;;;7375921;19;20348;-75
2022/07/03 05:49:15;;;;;;;2.70;2.50;;;20.40;99.90;;;;;;7373144;19;20332;-77
2022/07/03 05:51:40;;;;;;;2.80;2.50;;;20.60;99.90;;;;;;7375881;19;21269;-76
2022/07/03 05:54:06;;;;;;;2.63;2.40;;;20.60;99.90;;;;;;7374026;19;20372;-77
2022/07/03 05:56:31;;;;;;;2.67;2.47;;;20.80;99.90;;;;;;7374995;19;20344;-74
2022/07/03 05:58:57;;;;;;;2.57;2.37;;;21.00;99.90;;;;;;7378627;19;20834;-74
2022/07/03 06:01:23;;;;;;;4.30;2.47;;;21.10;99.90;;;;;;7373913;19;20321;-76
2022/07/03 06:03:49;;;;;;;2.90;2.40;;;21.30;99.90;;;;;;7374027;19;20856;-74
2022/07/03 06:06:15;;;;;;;3.00;2.70;;;21.50;99.90;;;;;;7373688;19;20368;-78
2022/07/03 06:08:40;;;;;;;2.80;2.40;;;21.70;99.90;;;;;;7378372;19;20341;-76
2022/07/03 06:11:06;;;;;;;2.40;2.20;;;21.90;99.90;;;;;;7374749;19;20331;-78
2022/07/03 06:13:31;;;;;;;3.23;2.37;;;21.80;99.90;;;;;;7373560;19;20349;-77
2022/07/03 06:15:57;;;;;;;2.58;2.38;;;21.90;99.90;;;;;;7374759;19;20682;-72
2022/07/03 06:18:23;;;;;;;2.40;2.20;;;22.00;99.90;;;;;;7377611;19;20308;-77
2022/07/03 06:20:48;;;;;;;2.60;2.40;;;22.10;99.90;;;;;;7374439;19;20341;-74
2022/07/03 06:23:14;;;;;;;1.97;1.87;;;22.10;99.90;;;;;;7372543;19;20332;-75
2022/07/03 06:25:39;;;;;;;2.38;2.20;;;22.20;99.90;;;;;;7374318;19;20868;-73
2022/07/03 06:28:05;;;;;;;1.83;1.73;;;22.30;99.90;;;;;;7374353;19;20353;-75
2022/07/03 06:30:30;;;;;;;1.90;1.80;;;22.70;99.90;;;;;;7373016;19;20324;-75
2022/07/03 06:32:56;;;;;;;3.80;2.30;;;23.00;99.90;;;;;;7372364;19;20352;-73
2022/07/03 06:35:21;;;;;;;2.00;1.90;;;23.00;99.90;;;;;;7368675;19;20320;-75
2022/07/03 06:37:47;;;;;;;2.30;2.10;;;22.80;99.90;;;;;;7370065;19;20412;-75
2022/07/03 06:40:13;;;;;;;2.43;2.23;;;22.80;99.90;;;;;;7374062;19;20795;-76
2022/07/03 06:42:41;;;;;;;2.00;1.90;;;22.50;99.90;;;;;;7374025;19;20360;-75
2022/07/03 06:45:07;;;;;;;2.13;1.90;;;22.60;99.90;;;;;;7375473;19;20309;-71
2022/07/03 06:47:37;;;;;;;1.83;1.73;;;22.80;99.90;;;;;;7370850;19;21153;-76
2022/07/03 06:50:02;;;;;;;1.50;1.40;;;23.10;99.90;;;;;;7382317;19;20336;-73
2022/07/03 06:52:28;;;;;;;1.70;1.60;;;23.40;99.90;;;;;;7379592;19;20809;-72
2022/07/03 06:54:54;;;;;;;1.60;1.50;;;23.70;99.90;;;;;;7381266;19;20343;-73
2022/07/03 06:57:19;;;;;;;1.90;1.80;;;24.00;99.90;;;;;;7381710;19;20362;-75
2022/07/03 06:59:45;;;;;;;1.52;1.40;;;23.90;99.90;;;;;;7381968;19;20689;-75
2022/07/03 07:02:10;;;;;;;1.85;1.65;;;23.90;99.90;;;;;;7374510;19;20340;-73
2022/07/03 07:04:36;;;;;;;1.70;1.60;;;24.00;99.90;;;;;;7380441;19;20739;-76
2022/07/03 07:07:01;;;;;;;2.30;1.60;;;24.10;99.90;;;;;;7382813;19;20313;-72
2022/07/03 07:09:27;;;;;;;1.20;1.20;;;24.10;99.90;;;;;;7382550;19;20320;-77
2022/07/03 07:11:53;;;;;;;1.90;1.40;;;24.10;99.90;;;;;;7380224;19;20385;-72
2022/07/03 07:14:18;;;;;;;1.70;1.60;;;24.10;99.90;;;;;;7380576;19;20345;-79
2022/07/03 07:16:44;;;;;;;1.50;1.40;;;24.10;99.90;;;;;;7378097;19;20344;-79
2022/07/03 07:19:09;;;;;;;1.90;1.40;;;24.30;99.90;;;;;;7383331;19;20327;-78
2022/07/03 07:21:35;;;;;;;1.55;1.45;;;24.40;99.90;;;;;;7378742;19;20349;-76
2022/07/03 07:24:00;;;;;;;1.73;1.40;;;24.50;99.90;;;;;;7378685;19;20332;-76
2022/07/03 07:26:26;;;;;;;1.30;1.20;;;24.60;99.50;;;;;;7379874;19;20327;-73
2022/07/03 07:28:52;;;;;;;1.40;1.30;;;24.80;99.80;;;;;;7380420;19;20315;-76
2022/07/03 07:31:17;;;;;;;1.63;1.17;;;25.00;99.60;;;;;;7378557;19;20709;-74
2022/07/03 07:33:43;;;;;;;1.50;1.40;;;25.00;98.20;;;;;;7377989;19;20360;-78
2022/07/03 07:36:08;;;;;;;1.27;1.27;;;25.10;97.50;;;;;;7373939;19;20324;-77
2022/07/03 07:38:34;;;;;;;1.30;1.20;;;25.20;97.90;;;;;;7382565;19;21097;-74
2022/07/03 07:40:59;;;;;;;1.27;1.27;;;25.40;96.30;;;;;;7379641;19;20344;-76
2022/07/03 07:43:25;;;;;;;1.60;1.50;;;25.20;95.50;;;;;;7379190;19;20383;-77
2022/07/03 07:45:52;;;;;;;1.50;1.40;;;25.00;95.50;;;;;;7373301;19;20995;-72
2022/07/03 07:48:18;;;;;;;1.73;1.57;;;25.20;96.80;;;;;;7378311;19;20415;-78
2022/07/03 07:50:43;;;;;;;1.55;1.45;;;25.40;96.10;;;;;;7377964;19;20416;-77
2022/07/03 07:53:09;;;;;;;1.45;1.35;;;25.70;96.40;;;;;;7372441;19;21063;-74
2022/07/03 07:55:34;;;;;;;1.50;1.30;;;25.70;95.60;;;;;;7373060;19;20354;-80
2022/07/03 07:58:00;;;;;;;1.60;1.50;;;25.90;94.80;;;;;;7376777;19;20710;-75
2022/07/03 08:00:26;;;;;;;1.70;1.23;;;25.80;94.30;;;;;;7377012;19;20309;-75
2022/07/03 08:05:35;;;;;;;2.27;1.30;;;25.80;93.70;;;;;;7273636;19;2004461;-76
2022/07/03 08:08:16;;;;;;;1.27;1.20;;;26.10;92.80;;;;;;7379084;19;20321;-74
2022/07/03 08:10:48;;;;;;;1.40;1.30;;;26.50;92.60;;;;;;7272816;19;2020135;-74
2022/07/03 08:13:14;;;;;;;3.50;1.40;;;26.50;91.70;;;;;;7372863;19;20336;-76
2022/07/03 08:15:40;;;;;;;1.40;1.30;;;26.60;92.50;;;;;;7374117;19;20341;-74
2022/07/03 08:18:06;;;;;;;1.52;1.20;;;26.50;91.50;;;;;;7377123;19;20344;-76
2022/07/03 08:20:32;;;;;;;1.40;1.30;;;26.60;92.50;;;;;;7376327;19;20337;-74
2022/07/03 08:22:57;;;;;;;1.70;1.30;;;26.40;89.70;;;;;;7372570;19;21027;-72
2022/07/03 08:25:23;;;;;;;1.38;1.27;;;26.60;90.00;;;;;;7373141;19;20353;-75
2022/07/03 08:27:49;;;;;;;1.33;1.23;;;26.40;90.10;;;;;;7377028;19;20350;-77
2022/07/03 08:30:17;;;;;;;1.47;1.37;;;26.50;91.30;;;;;;7374884;19;20316;-72
2022/07/03 08:32:44;;;;;;;1.45;1.35;;;26.40;91.40;;;;;;7366963;19;21200;-77
2022/07/03 08:35:09;;;;;;;1.35;1.25;;;26.60;90.10;;;;;;7372211;19;20957;-75
2022/07/03 08:37:35;;;;;;;1.80;1.40;;;27.00;90.30;;;;;;7373201;19;20348;-75
2022/07/03 08:40:02;;;;;;;1.33;1.23;;;27.30;88.50;;;;;;7375684;19;20321;-74
2022/07/03 08:42:28;;;;;;;1.20;1.20;;;27.50;87.00;;;;;;7371173;19;20487;-73
2022/07/03 08:44:54;;;;;;;1.30;1.20;;;27.70;87.90;;;;;;7375733;19;20456;-75
2022/07/03 08:47:19;;;;;;;1.53;1.43;;;27.80;85.90;;;;;;7374971;19;20328;-75
2022/07/03 08:49:45;;;;;;;1.30;1.20;;;27.90;82.50;;;;;;7375398;19;21047;-75
2022/07/03 08:52:11;;;;;;;1.73;1.43;;;28.00;86.90;;;;;;7371158;19;20365;-74
2022/07/03 08:54:37;;;;;;;1.58;1.48;;;27.90;81.00;;;;;;7373844;19;20353;-75
2022/07/03 08:57:03;;;;;;;1.67;1.58;;;27.80;80.60;;;;;;7372930;19;20324;-75
2022/07/03 08:59:36;;;;;;;1.90;1.40;;;27.70;80.80;;;;;;7374105;19;20672;-75
2022/07/03 09:02:05;;;;;;;1.50;1.40;;;27.70;81.30;;;;;;7370743;19;20353;-74
2022/07/03 09:04:34;;;;;;;4.10;1.42;;;27.70;79.70;;;;;;7371722;19;20332;-74
2022/07/03 09:07:00;;;;;;;1.50;1.40;;;28.00;81.10;;;;;;7373497;19;20838;-75
2022/07/03 09:09:26;;;;;;;1.33;1.30;;;27.90;79.50;;;;;;7376579;19;20391;-73
2022/07/03 09:11:51;;;;;;;1.30;1.20;;;28.20;79.10;;;;;;7373980;19;20982;-74
2022/07/03 09:14:17;;;;;;;1.40;1.30;;;28.30;78.90;;;;;;7372254;19;20337;-74
2022/07/03 09:16:43;;;;;;;2.30;1.40;;;28.30;78.40;;;;;;7372844;19;20312;-74
2022/07/03 09:19:08;;;;;;;1.35;1.25;;;27.90;79.30;;;;;;7376187;19;20440;-75
2022/07/03 09:21:41;;;;;;;1.30;1.20;;;28.10;79.20;;;;;;7371363;19;20360;-75
2022/07/03 09:24:08;;;;;;;2.10;1.48;;;28.10;78.70;;;;;;7370099;19;20375;-75
2022/07/03 09:26:33;;;;;;;1.77;1.50;;;28.10;77.10;;;;;;7372805;19;20915;-75
2022/07/03 09:28:59;;;;;;;1.45;1.35;;;27.90;76.80;;;;;;7373352;19;20320;-74
2022/07/03 09:31:29;;;;;;;1.38;1.27;;;27.90;78.90;;;;;;7371652;19;20452;-74
2022/07/03 09:34:09;;;;;;;1.45;1.35;;;28.40;78.20;;;;;;7366537;19;20456;-73
2022/07/03 09:36:45;;;;;;;1.45;1.30;;;28.90;77.60;;;;;;7269823;19;2004509;-75
2022/07/03 09:39:20;;;;;;;1.60;1.48;;;28.90;74.50;;;;;;7373651;19;20321;-74
2022/07/03 09:42:11;;;;;;;1.48;1.38;;;28.90;73.90;;;;;;7371785;19;20919;-75
2022/07/03 09:44:46;;;;;;;1.20;1.20;;;28.80;76.70;;;;;;7268833;19;2005610;-75
2022/07/03 09:47:14;;;;;;;1.30;1.20;;;29.60;77.10;;;;;;7373355;19;20859;-75
2022/07/03 09:49:59;;;;;;;3.63;1.60;;;30.10;72.20;;;;;;7372809;19;20368;-76
2022/07/03 09:52:36;;;;;;;1.40;1.30;;;30.00;73.50;;;;;;7370911;19;20312;-76
2022/07/03 09:55:11;;;;;;;1.60;1.50;;;30.10;76.50;;;;;;7371718;19;21347;-75
2022/07/03 09:57:38;;;;;;;1.40;1.30;;;30.30;75.50;;;;;;7266322;19;2016551;-75
2022/07/03 10:00:15;;;;;;;1.48;1.38;;;30.30;71.00;;;;;;7372406;19;20348;-76
2022/07/03 10:02:57;;;;;;;1.80;1.40;;;30.30;72.30;;;;;;7162931;19;2005485;-76
2022/07/03 10:05:24;;;;;;;1.90;1.80;;;30.80;74.80;;;;;;7369907;19;20380;-76
2022/07/03 10:07:54;;;;;;;1.55;1.45;;;31.10;66.90;;;;;;7371984;19;20340;-76
2022/07/03 10:10:21;;;;;;;1.60;1.50;;;31.10;69.00;;;;;;7368505;19;20316;-75
2022/07/03 10:12:48;;;;;;;1.42;1.30;;;31.80;67.60;;;;;;7369463;19;20344;-76
2022/07/03 10:15:13;;;;;;;2.40;1.40;;;31.50;65.40;;;;;;7371272;19;20951;-74
2022/07/03 10:17:39;;;;;;;1.48;1.38;;;31.70;67.30;;;;;;7373868;19;20336;-73
2022/07/03 10:20:05;;;;;;;1.50;1.40;;;31.60;68.30;;;;;;7368207;19;20308;-72
2022/07/03 10:22:31;;;;;;;1.50;1.40;;;31.30;68.10;;;;;;7368612;19;20439;-74
2022/07/03 10:24:56;;;;;;;1.50;1.40;;;31.50;68.20;;;;;;7368840;19;20337;-73
2022/07/03 10:27:22;;;;;;;1.50;1.40;;;31.40;66.40;;;;;;7370640;19;21010;-72
2022/07/03 10:29:47;;;;;;;2.22;1.50;;;31.20;67.40;;;;;;7369139;19;20338;-72
2022/07/03 10:32:13;;;;;;;1.58;1.48;;;31.40;67.70;;;;;;7365810;19;20447;-73
2022/07/03 10:34:41;;;;;;;1.30;1.30;;;31.90;67.40;;;;;;7371302;19;20859;-72
2022/07/03 10:37:06;;;;;;;1.30;1.30;;;32.20;66.20;;;;;;7372396;19;20336;-73
2022/07/03 10:39:51;;;;;;;3.30;1.63;;;32.10;67.40;;;;;;7373901;19;20670;-73
2022/07/03 10:45:13;;;;;;;1.70;1.60;;;32.40;65.20;;;;;;7270103;19;2004326;-73
2022/07/03 10:47:40;;;;;;;2.05;1.70;;;32.30;63.10;;;;;;7370909;19;20325;-74
2022/07/03 10:50:16;;;;;;;1.75;1.60;;;32.30;64.50;;;;;;7372759;19;20312;-73
2022/07/03 10:52:42;;;;;;;2.25;1.38;;;32.60;65.40;;;;;;7373322;19;20336;-74
2022/07/03 10:55:08;;;;;;;1.70;1.53;;;33.30;65.50;;;;;;7372657;19;20321;-73
2022/07/03 10:57:35;;;;;;;1.52;1.42;;;33.80;64.80;;;;;;7374811;19;20396;-72
2022/07/03 11:00:00;;;;;;;1.50;1.40;;;33.40;62.70;;;;;;7376089;19;20328;-72
2022/07/03 11:02:36;;;;;;;1.47;1.37;;;33.10;63.40;;;;;;7371529;19;20332;-73
2022/07/03 11:05:02;;;;;;;1.80;1.70;;;33.10;62.10;;;;;;7373158;19;20308;-74
2022/07/03 11:07:28;;;;;;;1.67;1.58;;;33.70;61.40;;;;;;7376133;19;20418;-74
2022/07/03 11:10:05;;;;;;;1.50;1.40;;;33.80;60.70;;;;;;7375291;19;20367;-74
2022/07/03 11:12:55;;;;;;;1.90;1.67;;;34.20;62.40;;;;;;7374984;19;20318;-73
2022/07/03 11:15:30;;;;;;;1.77;1.67;;;33.60;59.70;;;;;;7271351;19;2004700;-73
2022/07/03 11:18:14;;;;;;;1.48;1.38;;;33.90;61.40;;;;;;7374707;19;20301;-74
2022/07/03 11:20:42;;;;;;;1.52;1.42;;;33.10;58.60;;;;;;7271058;19;2004295;-74
2022/07/03 11:23:16;;;;;;;1.65;1.52;;;33.30;63.90;;;;;;7379217;19;20356;-74
2022/07/03 11:25:48;;;;;;;1.63;1.52;;;33.50;61.60;;;;;;7379810;19;20316;-75
2022/07/03 11:28:36;;;;;;;1.73;1.63;;;33.20;60.60;;;;;;7382363;19;20321;-74
2022/07/03 11:31:13;;;;;;;1.67;1.58;;;33.10;61.10;;;;;;7378361;19;20308;-73
2022/07/03 11:33:51;;;;;;;1.60;1.50;;;33.60;60.60;;;;;;7275812;19;2005305;-75
2022/07/03 11:36:16;;;;;;;1.73;1.63;;;34.20;61.40;;;;;;7380940;19;20332;-74
2022/07/03 11:38:54;;;;;;;1.97;1.60;;;34.90;60.90;;;;;;7383213;19;20416;-75
2022/07/03 11:41:19;;;;;;;1.50;1.40;;;35.50;59.00;;;;;;7380832;19;20320;-75
2022/07/03 11:43:49;;;;;;;3.50;1.50;;;35.20;58.40;;;;;;7379421;19;20304;-75
2022/07/03 11:46:22;;;;;;;1.80;1.60;;;35.40;61.30;;;;;;7379712;19;20320;-74
2022/07/03 11:48:47;;;;;;;2.03;1.50;;;35.60;57.70;;;;;;7381368;19;20349;-74
2022/07/03 11:51:13;;;;;;;1.80;1.70;;;35.90;59.20;;;;;;7378639;19;20927;-74
2022/07/03 11:53:39;;;;;;;1.80;1.70;;;35.90;55.10;;;;;;7378225;19;20333;-74
2022/07/03 11:56:06;;;;;;;3.42;1.88;;;36.40;58.00;;;;;;7377872;19;20329;-75
2022/07/03 11:58:49;;;;;;;1.60;1.50;;;36.20;55.30;;;;;;7381085;19;20301;-75
2022/07/03 12:01:26;;;;;;;1.65;1.55;;;36.40;56.90;;;;;;7274809;19;2004457;-75
2022/07/03 12:04:12;;;;;;;1.70;1.60;;;36.10;55.90;;;;;;7377322;19;20489;-75
2022/07/03 12:06:45;;;;;;;1.58;1.48;;;36.10;56.10;;;;;;7276673;19;2004251;-75
2022/07/03 12:09:34;;;;;;;1.60;1.50;;;36.60;56.80;;;;;;7380081;19;20300;-76
2022/07/03 12:12:06;;;;;;;2.20;1.52;;;36.80;54.00;;;;;;7375783;19;20355;-75
2022/07/03 12:14:41;;;;;;;1.40;1.30;;;36.80;52.60;;;;;;7380142;19;20329;-74
2022/07/03 12:17:08;;;;;;;1.50;1.40;;;36.40;51.80;;;;;;7378648;19;20400;-75
2022/07/03 12:19:34;;;;;;;1.33;1.30;;;36.90;53.80;;;;;;7379620;19;20316;-75
2022/07/03 12:22:00;;;;;;;1.70;1.60;;;36.90;51.60;;;;;;7376322;19;20320;-75
2022/07/03 12:24:26;;;;;;;1.65;1.55;;;36.20;49.90;;;;;;7379271;19;20427;-74
2022/07/03 12:26:52;;;;;;;1.40;1.40;;;35.00;50.80;;;;;;7378058;19;20456;-74
2022/07/03 12:29:17;;;;;;;1.63;1.52;;;35.10;54.00;;;;;;7378484;19;20388;-76
2022/07/03 12:31:46;;;;;;;1.73;1.45;;;35.60;56.40;;;;;;7377097;19;20304;-74
2022/07/03 12:34:13;;;;;;;1.52;1.42;;;36.10;53.40;;;;;;7376508;19;20317;-74
2022/07/03 12:36:39;;;;;;;3.00;1.55;;;36.40;52.70;;;;;;7377142;19;21159;-74
2022/07/03 12:39:04;;;;;;;1.55;1.40;;;36.50;51.90;;;;;;7379516;19;20386;-75
2022/07/03 12:41:30;;;;;;;2.00;1.50;;;36.20;52.50;;;;;;7377042;19;20328;-75
2022/07/03 12:43:57;;;;;;;1.70;1.50;;;36.50;54.60;;;;;;7376128;19;20372;-74
2022/07/03 12:46:34;;;;;;;1.60;1.50;;;36.40;52.40;;;;;;7376355;19;21261;-74
2022/07/03 12:49:00;;;;;;;1.48;1.38;;;36.20;53.50;;;;;;7379426;19;20308;-75
2022/07/03 12:51:52;;;;;;;1.60;1.50;;;36.10;53.70;;;;;;7377469;19;20349;-74
2022/07/03 12:54:21;;;;;;;1.42;1.33;;;35.60;54.30;;;;;;7274164;19;2017322;-74
2022/07/03 12:56:46;;;;;;;1.60;1.50;;;35.30;56.10;;;;;;7378624;19;20344;-74
2022/07/03 12:59:27;;;;;;;1.38;1.33;;;35.30;53.20;;;;;;7378162;19;20304;-74
2022/07/03 13:02:05;;;;;;;2.20;1.50;;;35.20;54.10;;;;;;7374685;19;20387;-74
2022/07/03 13:04:35;;;;;;;1.73;1.63;;;35.40;52.20;;;;;;7377854;19;20337;-74